Etusivu
METAR-TAF:

METAR-TAF

Lentoasemat :

Trondheim, Norja

Trondheimin lentoasema

Leveyspiiri: 63-28N, Pituuspiiri: 010-56E, korkeus merenpinnasta: 1 m

Tämänhetkinen sää

Tämä raportti tehtiin 36 minuuttia sitten, kello 04.20 UTC
tyyntä
Lämpötila 7°C
Kosteus 93%
Ilmanpaine 1017 hPa
Näkyvyys 10 km tai enemmän
Muutamia pilviä 600 ft:n korkeudessa
Hajonneita pilviä 1300 ft:n korkeudessa

METAR: ENVA 230420Z 00000KT 9999 FEW006 BKN013 07/06 Q1017 RMK WIND 670FT VRB02KT

Aika: 06:56 (04:56 UTC)

Sääennuste

Ennuste voimassa 23. päivästä klo 00 UTC - 23. päivään klo 24 UTC
Tuuli 7 kn eri suunnista
Näkyvyys 10 km tai enemmän
Hajanaisia pilviä 500 ft:n korkeudessa
Hajonneita pilviä 2000 ft:n korkeudessa
Ajoittain
23. päivästä klo 00 UTC - 23. päivään klo 06 UTC
Näkyvyys: 2000 m
Hajonneita pilviä 300 ft:n korkeudessa
utua

TAF: ENVA 2300/2324 VRB07KT 9999 SCT005 BKN020 TEMPO 2300/2306 2000 BR BKN003

Säähavainnot ja -ennusteet yli 4000 lentoasemalta (METAR- ja TAF-raportit).

Käytössä olevat sääasemat on merkitty karttaan keltaisilla ja punaisilla pisteillä.

Aseta hiiri pisteen päälle nähdäksesi sääaseman nimen.

Klikkaa sitten nähdäksesi säähavainnot ja -ennusteet.

Kartan vaihtaminen: klikkaa mustalla rastilla varustettuja vihreitä pisteitä, niin voit zoomata sisään; viivalla varustettua vihreää pistettä, niin voit zoomata ulos tai vihreitä nuolia, niin pääset viereisille kartoille.


METAR-TAF: